createdAt,value
2022-11-21T00:02:32.104Z,99546.81
2022-11-21T00:06:35.121Z,99541.56
2022-11-21T00:10:39.513Z,99536.97
2022-11-21T00:14:42.552Z,99544.28
2022-11-21T00:18:46.885Z,99553.72
2022-11-21T00:22:50.020Z,99542.00
2022-11-21T00:26:53.019Z,99557.69
2022-11-21T00:30:56.031Z,99546.81
2022-11-21T00:35:00.449Z,99548.72
2022-11-21T00:39:03.491Z,99550.81
2022-11-21T00:43:06.493Z,99567.34
2022-11-21T00:47:09.535Z,99561.09
2022-11-21T00:51:13.880Z,99567.84
2022-11-21T00:55:16.921Z,99553.19
2022-11-21T00:59:20.650Z,99551.13
2022-11-21T01:03:23.630Z,99544.00
2022-11-21T01:07:28.234Z,99548.59
2022-11-21T01:11:31.644Z,99544.44
2022-11-21T01:15:35.205Z,99549.06
2022-11-21T01:19:38.305Z,99560.75
2022-11-21T01:23:43.251Z,99540.50
2022-11-21T01:27:46.256Z,99545.28
2022-11-21T01:31:50.066Z,99562.03
2022-11-21T01:35:53.051Z,99565.78
2022-11-21T01:39:57.389Z,99562.84
2022-11-21T01:44:00.559Z,99566.63
2022-11-21T01:48:03.924Z,99559.09
2022-11-21T01:52:12.276Z,99571.22
2022-11-21T01:56:17.248Z,99560.34
2022-11-21T02:00:25.035Z,99554.91
2022-11-21T02:04:32.056Z,99560.75
2022-11-21T02:08:35.405Z,99561.00
2022-11-21T02:12:46.918Z,99562.88
2022-11-21T02:16:50.986Z,99570.16
2022-11-21T02:21:00.850Z,99568.91
2022-11-21T02:25:08.127Z,99557.63
2022-11-21T02:29:11.322Z,99554.44
2022-11-21T02:33:15.352Z,99557.75
2022-11-21T02:37:19.264Z,99554.00
2022-11-21T02:41:27.385Z,99556.09
2022-11-21T02:45:35.038Z,99567.34
2022-11-21T02:49:43.516Z,99570.88
2022-11-21T02:53:46.631Z,99573.16
2022-11-21T02:57:51.114Z,99570.66
2022-11-21T03:01:54.124Z,99570.88
2022-11-21T03:05:57.768Z,99573.63
2022-11-21T03:10:00.802Z,99574.03
2022-11-21T03:14:05.181Z,99560.69
2022-11-21T03:18:08.354Z,99580.53
2022-11-21T03:22:11.888Z,99575.75
2022-11-21T03:26:14.908Z,99570.50
2022-11-21T03:30:19.794Z,99568.28
2022-11-21T03:34:22.844Z,99562.84
2022-11-21T03:38:25.920Z,99568.50
2022-11-21T03:42:28.966Z,99565.38
2022-11-21T03:46:35.397Z,99562.41
2022-11-21T03:50:38.408Z,99564.50
2022-11-21T03:54:41.420Z,99572.88
2022-11-21T03:58:45.229Z,99573.69
2022-11-21T04:02:49.561Z,99562.38
2022-11-21T04:06:52.577Z,99566.13
2022-11-21T04:10:56.577Z,99572.19
2022-11-21T04:14:59.606Z,99575.38
2022-11-21T04:19:04.157Z,99565.56
2022-11-21T04:23:07.773Z,99573.72
2022-11-21T04:27:10.773Z,99575.41
2022-11-21T04:31:14.247Z,99574.13
2022-11-21T04:35:18.889Z,99583.72
2022-11-21T04:39:21.873Z,99570.78
2022-11-21T04:43:24.997Z,99572.88
2022-11-21T04:47:28.010Z,99572.44
2022-11-21T04:51:32.353Z,99563.25
2022-11-21T04:55:35.453Z,99557.19
2022-11-21T04:59:38.489Z,99562.44
2022-11-21T05:03:41.512Z,99565.56
2022-11-21T05:07:45.954Z,99554.47
2022-11-21T05:12:06.406Z,99554.06
2022-11-21T05:16:09.423Z,99546.97
2022-11-21T05:20:13.353Z,99551.59
2022-11-21T05:24:17.744Z,99551.59
2022-11-21T05:28:23.162Z,99546.16
2022-11-21T05:32:29.196Z,99545.31
2022-11-21T05:36:34.938Z,99536.75
2022-11-21T05:40:40.136Z,99534.22
2022-11-21T05:44:43.145Z,99535.50
2022-11-21T05:48:47.050Z,99539.44
2022-11-21T05:52:50.263Z,99542.78
2022-11-21T05:56:54.679Z,99543.41
2022-11-21T06:00:59.997Z,99539.88
2022-11-21T06:05:03.227Z,99538.22
2022-11-21T06:09:06.389Z,99532.38
2022-11-21T06:13:22.154Z,99529.03
2022-11-21T06:17:25.375Z,99526.94
2022-11-21T06:21:30.206Z,99525.25
2022-11-21T06:25:33.272Z,99526.09
2022-11-21T06:29:37.666Z,99529.66
2022-11-21T06:33:42.683Z,99516.50
2022-11-21T06:37:50.773Z,99508.53
2022-11-21T06:41:56.354Z,99508.94
2022-11-21T06:46:03.333Z,99514.38
2022-11-21T06:50:07.184Z,99511.03
2022-11-21T06:54:13.865Z,99517.25
2022-11-21T06:58:19.865Z,99506.59
2022-11-21T07:02:24.350Z,99509.91
2022-11-21T07:06:27.503Z,99511.00
2022-11-21T07:10:31.629Z,99505.16
2022-11-21T07:14:34.663Z,99507.44
2022-11-21T07:18:39.032Z,99503.69
2022-11-21T07:22:42.603Z,99508.06
2022-11-21T07:26:45.662Z,99510.38
2022-11-21T07:30:48.721Z,99500.19
2022-11-21T07:34:53.390Z,99502.28
2022-11-21T07:38:56.476Z,99509.16
2022-11-21T07:43:06.691Z,99494.34
2022-11-21T07:47:13.622Z,99483.69
2022-11-21T07:51:18.077Z,99490.97
2022-11-21T07:55:21.078Z,99491.00
2022-11-21T07:59:24.669Z,99488.91
2022-11-21T08:03:27.813Z,99487.00
2022-11-21T08:07:32.385Z,99486.19
2022-11-21T08:11:37.274Z,99486.38
2022-11-21T08:15:40.345Z,99472.59
2022-11-21T08:19:43.665Z,99479.50
2022-11-21T08:23:48.176Z,99485.75
2022-11-21T08:27:51.526Z,99480.09
2022-11-21T08:31:54.564Z,99483.22
2022-11-21T08:35:57.654Z,99481.31
2022-11-21T08:40:02.479Z,99469.16
2022-11-21T08:44:11.146Z,99467.41
2022-11-21T08:48:16.784Z,99457.78
2022-11-21T08:52:19.849Z,99440.94
2022-11-21T08:56:24.549Z,99424.78
2022-11-21T09:00:27.753Z,99404.59
2022-11-21T09:04:30.896Z,99390.78
2022-11-21T09:08:35.028Z,99381.28
2022-11-21T09:12:39.499Z,99384.13
2022-11-21T09:17:02.195Z,99384.91
2022-11-21T09:21:05.553Z,99374.72
2022-11-21T09:25:09.369Z,99369.66
2022-11-21T09:29:15.173Z,99372.63
2022-11-21T09:33:18.522Z,99362.03
2022-11-21T09:37:21.697Z,99360.97
2022-11-21T09:41:50.166Z,99357.56
2022-11-21T09:46:03.593Z,99344.44
2022-11-21T09:50:25.429Z,99332.66
2022-11-21T09:54:34.917Z,99331.69
2022-11-21T09:58:42.739Z,99327.50
2022-11-21T10:02:47.405Z,99323.66
2022-11-21T10:06:58.541Z,99304.69
2022-11-21T10:11:19.433Z,99305.91
2022-11-21T10:15:33.418Z,99302.59
2022-11-21T10:19:53.922Z,99297.47
2022-11-21T10:24:13.344Z,99293.34
2022-11-21T10:28:22.962Z,99295.13
2022-11-21T10:32:31.417Z,99275.66
2022-11-21T10:36:39.280Z,99265.59
2022-11-21T10:40:47.378Z,99259.50
2022-11-21T10:45:07.671Z,99258.78
2022-11-21T10:49:15.074Z,99256.25
2022-11-21T10:53:39.831Z,99238.13
2022-11-21T10:57:46.726Z,99220.00
2022-11-21T11:01:56.786Z,99215.38
2022-11-21T11:05:59.842Z,99207.38
2022-11-21T11:10:26.937Z,99194.09
2022-11-21T11:14:33.535Z,99184.75
2022-11-21T11:18:40.685Z,99180.88
2022-11-21T11:22:43.793Z,99184.81
2022-11-21T11:26:56.458Z,99173.91
2022-11-21T11:30:59.598Z,99170.59
2022-11-21T11:35:10.436Z,99162.94
2022-11-21T11:39:22.266Z,99147.50
2022-11-21T11:43:53.669Z,99139.16
2022-11-21T11:47:59.298Z,99132.13
2022-11-21T11:52:05.074Z,99131.41
2022-11-21T11:56:13.333Z,99113.91
2022-11-21T12:00:28.277Z,99116.34
2022-11-21T12:04:39.474Z,99093.75
2022-11-21T12:08:50.008Z,99087.53
2022-11-21T12:13:00.424Z,99081.59
2022-11-21T12:17:07.008Z,99075.09
2022-11-21T12:21:14.621Z,99072.06
2022-11-21T12:25:19.758Z,99068.19
2022-11-21T12:29:34.934Z,99055.53
2022-11-21T12:33:48.017Z,99052.22
2022-11-21T12:38:04.788Z,99044.41
2022-11-21T12:42:33.334Z,99045.50
2022-11-21T12:46:47.092Z,99034.13
2022-11-21T12:51:21.989Z,99032.97
2022-11-21T12:55:39.253Z,99010.22
2022-11-21T13:00:04.939Z,99006.06
2022-11-21T13:04:15.373Z,98991.09
2022-11-21T13:08:24.969Z,98987.09
2022-11-21T13:12:36.694Z,98977.81
2022-11-21T13:16:46.857Z,98971.59
2022-11-21T13:20:52.730Z,98954.34
2022-11-21T13:24:59.748Z,98958.41
2022-11-21T16:09:44.915Z,98676.28
2022-11-21T16:13:52.103Z,98661.59
2022-11-21T16:17:55.465Z,98648.94
2022-11-21T16:21:58.816Z,98642.81
2022-11-21T16:26:03.625Z,98624.59
2022-11-21T16:30:08.955Z,98607.19
2022-11-21T16:34:13.058Z,98597.75
2022-11-21T16:38:16.729Z,98599.88
2022-11-21T16:42:21.645Z,98617.97
2022-11-21T16:46:26.561Z,98614.53
2022-11-21T16:50:29.905Z,98610.41
2022-11-21T16:54:33.475Z,98603.63
2022-11-21T16:58:39.542Z,98606.63
2022-11-21T17:02:44.296Z,98607.09
2022-11-21T17:06:49.036Z,98595.25
2022-11-21T17:10:52.495Z,98578.91
2022-11-21T17:14:57.466Z,98565.91
2022-11-21T17:19:02.710Z,98564.72
2022-11-21T17:23:05.900Z,98552.19
2022-11-21T17:27:09.709Z,98554.31
2022-11-21T17:31:15.641Z,98559.66
2022-11-21T17:35:18.626Z,98549.84
2022-11-21T17:39:28.097Z,98553.53
2022-11-21T17:43:33.686Z,98535.91
2022-11-21T17:47:38.525Z,98535.81
2022-11-21T17:51:42.206Z,98525.88
2022-11-21T17:55:45.235Z,98522.00
2022-11-21T17:59:48.284Z,98531.69
2022-11-21T18:03:57.659Z,98567.53
2022-11-21T18:08:01.009Z,98568.22
2022-11-21T18:12:04.077Z,98561.47
2022-11-21T18:16:09.097Z,98529.53
2022-11-21T18:20:13.971Z,98522.44
2022-11-21T18:24:17.043Z,98510.38
2022-11-21T18:28:20.118Z,98508.81
2022-11-21T18:32:23.384Z,98505.13
2022-11-21T18:36:29.114Z,98496.97
2022-11-21T18:40:32.164Z,98490.69
2022-11-21T18:44:35.326Z,98495.91
2022-11-21T18:49:00.643Z,98494.25
2022-11-21T18:53:03.980Z,98498.03
2022-11-21T18:57:07.133Z,98485.84
2022-11-21T19:01:17.565Z,98478.41
2022-11-21T19:05:20.973Z,98465.41
2022-11-21T19:09:29.536Z,98449.66
2022-11-21T19:13:35.484Z,98444.78
2022-11-21T19:17:38.532Z,98442.31
2022-11-21T19:21:41.920Z,98420.03
2022-11-21T19:25:46.370Z,98430.44
2022-11-21T19:29:53.841Z,98417.09
2022-11-21T19:33:56.995Z,98427.44
2022-11-21T19:38:01.328Z,98434.47
2022-11-21T19:42:05.935Z,98430.16
2022-11-21T19:46:09.036Z,98413.28
2022-11-21T19:50:14.135Z,98423.03
2022-11-21T19:54:17.544Z,98409.91
2022-11-21T19:58:22.104Z,98401.97
2022-11-21T20:02:25.561Z,98395.16
2022-11-21T20:06:30.902Z,98395.97
2022-11-21T20:10:34.350Z,98376.59
2022-11-21T20:14:38.824Z,98377.88
2022-11-21T20:18:41.866Z,98371.06
2022-11-21T20:22:45.137Z,98361.84
2022-11-21T20:26:48.197Z,98348.47
2022-11-21T20:30:52.866Z,98346.13
2022-11-21T20:34:56.132Z,98349.66
2022-11-21T20:39:02.528Z,98350.13
2022-11-21T20:43:05.604Z,98352.25
2022-11-21T20:47:10.593Z,98346.50
2022-11-21T20:52:43.377Z,98342.06
2022-11-21T20:55:37.542Z,98349.31
2022-11-21T20:59:40.646Z,98344.56
2022-11-21T21:03:45.012Z,98326.13
2022-11-21T21:07:48.100Z,98338.41
2022-11-21T21:11:52.886Z,98328.94
2022-11-21T21:15:56.389Z,98326.78
2022-11-21T21:20:00.708Z,98316.50
2022-11-21T21:24:06.066Z,98311.50
2022-11-21T21:28:09.251Z,98301.44
2022-11-21T21:32:12.761Z,98297.16
2022-11-21T21:36:19.486Z,98292.56
2022-11-21T21:40:22.556Z,98289.59
2022-11-21T21:44:31.468Z,98285.00
2022-11-21T21:48:36.276Z,98276.00
2022-11-21T21:52:40.655Z,98275.75
2022-11-21T21:56:43.691Z,98274.91
2022-11-21T22:00:46.714Z,98282.00
2022-11-21T22:04:52.248Z,98280.34
2022-11-21T22:08:57.506Z,98275.41
2022-11-21T22:13:00.575Z,98273.75
2022-11-21T22:17:03.591Z,98282.19
2022-11-21T22:21:14.197Z,98268.31
2022-11-21T22:25:18.664Z,98253.00
2022-11-21T22:29:21.724Z,98249.19
2022-11-21T22:33:25.384Z,98241.63
2022-11-21T22:37:28.382Z,98236.19
2022-11-21T22:41:32.793Z,98243.09
2022-11-21T22:45:36.138Z,98246.97
2022-11-21T22:49:39.150Z,98249.88
2022-11-21T22:53:42.213Z,98243.63
2022-11-21T22:57:46.601Z,98249.06
2022-11-21T23:01:49.704Z,98260.41
2022-11-21T23:05:59.496Z,98264.19
2022-11-21T23:10:02.553Z,98257.13
2022-11-21T23:14:07.849Z,98259.25
2022-11-21T23:18:10.868Z,98258.09
2022-11-21T23:22:13.893Z,98262.34
2022-11-21T23:26:17.741Z,98256.44
2022-11-21T23:30:22.861Z,98255.28
2022-11-21T23:34:25.885Z,98264.50
2022-11-21T23:38:28.866Z,98264.72
2022-11-21T23:42:31.865Z,98256.81
2022-11-21T23:46:36.235Z,98264.41
2022-11-21T23:50:39.259Z,98268.75
2022-11-21T23:54:42.261Z,98277.50
2022-11-21T23:58:45.664Z,98275.34
